Time;durP1;ratioP1;P1;durP2;ratioP2;P2;SDS_P1;SDS_P2;PMS_P1;PMS_P2;Temp;Humidity;BMP_temperature;BMP_pressure;BME280_temperature;BME280_humidity;BME280_pressure;Samples;Min_cycle;Max_cycle;Signal;HPM_P1;HPM_P2
2021/04/30 00:01:48;;;;;;;4.32;2.90;;;7.70;82.50;;;;;;4979719;28;20035;-70
2021/04/30 00:04:14;;;;;;;7.00;3.72;;;7.70;82.90;;;;;;4978492;29;20020;-69
2021/04/30 00:06:40;;;;;;;5.60;3.22;;;7.80;82.30;;;;;;4973615;29;20067;-70
2021/04/30 00:09:05;;;;;;;4.75;2.80;;;7.80;81.90;;;;;;4955393;29;20047;-69
2021/04/30 00:11:31;;;;;;;4.30;2.58;;;7.80;81.40;;;;;;4946416;29;20020;-69
2021/04/30 00:13:57;;;;;;;5.63;3.00;;;7.80;81.10;;;;;;4946907;29;20020;-69
2021/04/30 00:16:22;;;;;;;4.53;2.80;;;7.90;80.40;;;;;;4946583;29;20332;-70
2021/04/30 00:18:48;;;;;;;5.28;3.45;;;7.80;79.60;;;;;;4946161;29;20015;-70
2021/04/30 00:21:14;;;;;;;5.10;3.03;;;7.90;79.60;;;;;;4929966;29;20034;-70
2021/04/30 00:23:40;;;;;;;3.30;2.63;;;7.90;79.70;;;;;;4946061;29;20114;-70
2021/04/30 00:26:06;;;;;;;5.57;2.58;;;7.90;79.00;;;;;;4946013;29;20012;-69
2021/04/30 00:28:32;;;;;;;4.13;2.28;;;7.90;79.10;;;;;;4945746;29;20008;-70
2021/04/30 00:30:57;;;;;;;4.25;2.33;;;7.90;78.60;;;;;;4945521;29;20058;-70
2021/04/30 00:33:23;;;;;;;4.15;2.17;;;8.00;78.30;;;;;;4945654;29;20087;-70
2021/04/30 00:35:49;;;;;;;6.45;2.40;;;8.00;78.10;;;;;;4945603;29;20038;-69
2021/04/30 00:38:15;;;;;;;5.22;2.70;;;7.90;77.60;;;;;;4945290;29;20007;-70
2021/04/30 00:40:41;;;;;;;4.05;2.70;;;7.90;76.90;;;;;;4950907;29;20011;-69
2021/04/30 00:43:06;;;;;;;4.30;2.60;;;7.90;77.40;;;;;;4964748;28;20328;-70
2021/04/30 00:45:32;;;;;;;3.47;2.00;;;7.90;77.10;;;;;;4965045;28;20026;-70
2021/04/30 00:47:58;;;;;;;4.78;2.47;;;7.90;77.50;;;;;;4953644;29;20016;-70
2021/04/30 00:50:24;;;;;;;2.65;1.95;;;7.90;76.90;;;;;;4954484;29;20316;-70
2021/04/30 00:52:50;;;;;;;3.30;2.33;;;7.80;76.70;;;;;;4964949;29;20038;-70
2021/04/30 00:55:17;;;;;;;4.13;2.03;;;7.90;77.90;;;;;;4964879;29;20017;-70
2021/04/30 00:57:52;;;;;;;4.68;2.70;;;7.80;76.60;;;;;;4965458;28;20015;-70
2021/04/30 01:00:18;;;;;;;4.60;2.60;;;7.80;76.90;;;;;;4964491;29;20050;-70
2021/04/30 01:02:43;;;;;;;4.28;2.20;;;7.70;76.70;;;;;;4973377;29;20050;-69
2021/04/30 01:05:10;;;;;;;4.20;2.13;;;7.70;77.20;;;;;;4975551;29;20015;-69
2021/04/30 01:07:35;;;;;;;3.03;1.70;;;7.70;77.10;;;;;;4973736;29;20025;-69
2021/04/30 01:10:01;;;;;;;4.18;2.10;;;7.70;77.10;;;;;;4973147;29;20011;-69
2021/04/30 01:12:27;;;;;;;3.25;2.30;;;7.70;76.60;;;;;;4969179;29;20031;-69
2021/04/30 01:14:52;;;;;;;4.95;2.70;;;7.70;76.90;;;;;;4965571;28;20050;-69
2021/04/30 01:17:18;;;;;;;5.93;2.80;;;7.60;76.40;;;;;;4964491;29;20026;-69
2021/04/30 01:19:44;;;;;;;7.32;2.63;;;7.60;76.50;;;;;;4947646;29;20325;-69
2021/04/30 01:22:09;;;;;;;3.20;1.95;;;7.60;76.60;;;;;;4944786;29;20047;-69
2021/04/30 01:24:36;;;;;;;4.97;1.90;;;7.60;76.30;;;;;;4944987;29;20012;-70
2021/04/30 01:27:01;;;;;;;5.65;2.42;;;7.60;76.50;;;;;;4944973;29;20016;-70
2021/04/30 01:29:28;;;;;;;4.35;2.00;;;7.60;76.50;;;;;;4944968;29;20369;-70
2021/04/30 01:31:53;;;;;;;4.35;1.88;;;7.50;76.30;;;;;;4945457;29;20022;-70
2021/04/30 01:34:19;;;;;;;3.70;1.95;;;7.50;76.10;;;;;;4947657;29;20015;-70
2021/04/30 01:36:45;;;;;;;4.25;2.25;;;7.50;76.20;;;;;;4946309;29;20057;-70
2021/04/30 01:39:13;;;;;;;2.92;1.90;;;7.50;76.20;;;;;;4964025;29;20058;-69
2021/04/30 01:41:38;;;;;;;3.78;2.10;;;7.50;76.60;;;;;;4964022;29;20026;-70
2021/04/30 01:44:08;;;;;;;3.83;2.10;;;7.50;76.50;;;;;;4964047;29;20019;-70
2021/04/30 01:46:35;;;;;;;6.10;2.50;;;7.40;76.40;;;;;;4958198;29;20062;-70
2021/04/30 01:49:00;;;;;;;2.83;1.80;;;7.40;76.60;;;;;;4944587;29;20012;-70
2021/04/30 01:51:26;;;;;;;3.95;1.80;;;7.40;77.00;;;;;;4944735;29;20259;-69
2021/04/30 01:53:53;;;;;;;3.30;1.85;;;7.40;76.70;;;;;;4951902;28;20039;-70
2021/04/30 01:56:18;;;;;;;3.70;2.00;;;7.40;76.70;;;;;;4963666;29;20088;-70
2021/04/30 01:58:44;;;;;;;4.00;2.15;;;7.30;76.60;;;;;;4963683;29;20037;-69
2021/04/30 02:01:10;;;;;;;3.97;2.10;;;7.30;76.70;;;;;;4963726;28;20047;-70
2021/04/30 02:03:35;;;;;;;5.43;2.60;;;7.30;76.90;;;;;;4959038;29;20309;-70
2021/04/30 02:06:01;;;;;;;6.18;2.58;;;7.20;76.90;;;;;;4944371;29;20019;-70
2021/04/30 02:08:27;;;;;;;4.85;2.22;;;7.20;76.90;;;;;;4944427;29;20019;-70
2021/04/30 02:10:52;;;;;;;4.70;2.15;;;7.10;77.00;;;;;;4947276;29;20047;-70
2021/04/30 02:13:19;;;;;;;5.07;2.40;;;7.20;77.10;;;;;;4948420;29;20035;-70
2021/04/30 02:15:47;;;;;;;4.18;2.40;;;7.10;76.20;;;;;;4961981;29;20015;-69
2021/04/30 02:18:12;;;;;;;5.47;2.67;;;7.10;76.70;;;;;;4968838;29;20320;-70
2021/04/30 02:20:38;;;;;;;4.40;2.33;;;7.10;77.00;;;;;;4968273;29;20099;-70
2021/04/30 02:23:04;;;;;;;3.95;2.45;;;7.00;76.90;;;;;;4967077;29;20046;-69
2021/04/30 02:25:29;;;;;;;4.78;2.45;;;7.00;77.00;;;;;;4951482;29;20061;-70
2021/04/30 02:27:57;;;;;;;4.15;2.00;;;6.90;77.30;;;;;;4967185;28;20086;-70
2021/04/30 02:30:23;;;;;;;3.97;2.15;;;6.90;77.40;;;;;;4938012;29;20027;-69
2021/04/30 02:32:49;;;;;;;5.47;2.65;;;6.90;77.70;;;;;;4947883;29;20031;-69
2021/04/30 02:35:20;;;;;;;4.93;2.58;;;6.80;77.60;;;;;;4947990;29;20015;-69
2021/04/30 02:37:46;;;;;;;4.28;2.28;;;6.80;77.90;;;;;;4947920;29;20016;-69
2021/04/30 02:40:12;;;;;;;4.60;2.15;;;6.80;77.50;;;;;;4947691;29;20031;-69
2021/04/30 02:42:38;;;;;;;3.42;1.83;;;6.80;77.00;;;;;;4950898;29;20094;-69
2021/04/30 02:45:04;;;;;;;4.97;2.38;;;6.70;77.00;;;;;;4967256;29;20012;-69
2021/04/30 02:47:31;;;;;;;6.53;2.60;;;6.70;77.20;;;;;;4982970;28;20015;-69
2021/04/30 02:50:01;;;;;;;5.60;2.50;;;6.70;77.40;;;;;;4967119;29;20045;-70
2021/04/30 02:52:26;;;;;;;4.68;2.30;;;6.60;77.10;;;;;;4968096;28;20019;-69
2021/04/30 02:54:52;;;;;;;5.68;2.00;;;6.60;77.10;;;;;;4968295;29;20023;-70
2021/04/30 02:57:18;;;;;;;3.47;1.92;;;6.60;77.50;;;;;;4967915;29;20018;-69
2021/04/30 02:59:43;;;;;;;2.90;1.83;;;6.60;77.50;;;;;;4967974;29;20026;-69
2021/04/30 03:02:09;;;;;;;4.68;2.00;;;6.50;77.20;;;;;;4967513;29;20027;-69
2021/04/30 03:04:35;;;;;;;4.30;2.00;;;6.50;77.30;;;;;;4966630;29;20018;-68
2021/04/30 03:07:00;;;;;;;5.22;2.53;;;6.50;77.30;;;;;;4966154;29;20029;-69
2021/04/30 03:09:26;;;;;;;5.22;2.13;;;6.50;76.10;;;;;;4966394;29;20026;-69
2021/04/30 03:11:51;;;;;;;3.28;1.80;;;6.40;76.20;;;;;;4965702;28;20018;-69
2021/04/30 03:14:17;;;;;;;4.68;1.75;;;6.40;76.20;;;;;;4965804;28;20183;-69
2021/04/30 03:16:43;;;;;;;2.85;1.60;;;6.40;75.90;;;;;;4965798;29;20095;-71
2021/04/30 03:19:09;;;;;;;5.57;1.40;;;6.30;75.80;;;;;;4967286;28;20019;-69
2021/04/30 03:21:35;;;;;;;2.65;1.75;;;6.30;76.10;;;;;;4959811;28;20216;-69
2021/04/30 03:24:01;;;;;;;2.85;1.80;;;6.20;75.80;;;;;;4946664;29;20086;-69
2021/04/30 03:26:26;;;;;;;3.13;2.05;;;6.20;76.10;;;;;;4947003;29;20090;-69
2021/04/30 03:28:52;;;;;;;3.17;1.90;;;6.20;75.90;;;;;;4947085;29;20023;-69
2021/04/30 03:31:18;;;;;;;3.22;1.67;;;6.20;75.60;;;;;;4946904;29;20024;-69
2021/04/30 03:33:43;;;;;;;2.85;1.70;;;6.20;75.70;;;;;;4947882;29;20030;-69
2021/04/30 03:36:09;;;;;;;2.83;1.48;;;6.10;75.30;;;;;;4947700;29;20023;-69
2021/04/30 03:38:35;;;;;;;3.10;2.00;;;6.10;75.40;;;;;;4947892;29;20071;-70
2021/04/30 03:41:00;;;;;;;2.45;1.70;;;6.10;75.00;;;;;;4965543;29;20054;-69
2021/04/30 03:43:26;;;;;;;3.55;1.55;;;6.10;75.00;;;;;;4965723;29;20011;-69
2021/04/30 03:45:52;;;;;;;2.78;1.80;;;6.00;75.10;;;;;;4965956;29;20013;-69
2021/04/30 03:48:18;;;;;;;3.50;1.75;;;6.00;75.10;;;;;;4965855;28;20012;-69
2021/04/30 03:50:43;;;;;;;3.55;1.70;;;6.00;75.00;;;;;;4965664;28;20039;-70
2021/04/30 03:53:09;;;;;;;3.15;1.48;;;5.90;74.50;;;;;;4967015;29;20019;-70
2021/04/30 03:55:35;;;;;;;2.17;1.40;;;5.90;74.80;;;;;;4966840;29;20082;-69
2021/04/30 03:58:01;;;;;;;2.10;1.40;;;5.90;74.30;;;;;;4966006;29;20049;-69
2021/04/30 04:00:26;;;;;;;4.72;1.60;;;5.80;74.20;;;;;;4966054;29;20058;-70
2021/04/30 04:02:52;;;;;;;4.90;1.58;;;5.80;73.90;;;;;;4966317;29;20033;-69
2021/04/30 04:05:17;;;;;;;2.58;1.50;;;5.80;73.80;;;;;;4982309;28;20107;-69
2021/04/30 04:07:43;;;;;;;2.60;1.38;;;5.80;73.70;;;;;;4964967;29;20015;-69
2021/04/30 04:10:09;;;;;;;3.30;1.45;;;5.80;74.10;;;;;;4966452;29;20316;-69
2021/04/30 04:12:35;;;;;;;1.70;1.35;;;5.80;74.10;;;;;;4965170;29;20027;-69
2021/04/30 04:15:00;;;;;;;2.53;1.40;;;5.80;73.90;;;;;;4953904;29;20025;-69
2021/04/30 04:17:26;;;;;;;4.07;1.45;;;5.80;73.70;;;;;;4946065;29;20135;-70
2021/04/30 04:19:52;;;;;;;1.98;1.30;;;5.80;73.20;;;;;;4963044;29;20024;-69
2021/04/30 04:22:17;;;;;;;2.30;1.50;;;5.80;73.30;;;;;;4965572;29;20046;-69
2021/04/30 04:24:43;;;;;;;3.80;1.60;;;5.80;72.70;;;;;;4966981;29;20019;-67
2021/04/30 04:27:09;;;;;;;2.15;1.38;;;5.80;72.60;;;;;;4950704;29;20074;-68
2021/04/30 04:29:35;;;;;;;2.00;1.08;;;5.80;72.70;;;;;;4945983;29;20035;-68
2021/04/30 04:32:01;;;;;;;1.60;1.20;;;5.80;72.50;;;;;;4947149;29;20014;-68
2021/04/30 04:34:27;;;;;;;2.92;1.40;;;5.90;72.20;;;;;;4946790;29;20316;-68
2021/04/30 04:36:52;;;;;;;4.10;1.40;;;5.90;72.10;;;;;;4953708;28;20074;-69
2021/04/30 04:39:18;;;;;;;2.53;1.27;;;5.90;71.70;;;;;;4966481;29;20026;-69
2021/04/30 04:41:44;;;;;;;1.92;1.08;;;5.90;71.30;;;;;;4950551;29;20028;-69
2021/04/30 04:44:10;;;;;;;2.75;1.50;;;5.90;71.20;;;;;;4946319;29;20016;-69
2021/04/30 04:46:35;;;;;;;3.47;1.15;;;5.90;71.10;;;;;;4946720;29;20026;-68
2021/04/30 04:49:01;;;;;;;1.85;1.10;;;5.90;71.00;;;;;;4946846;29;20011;-69
2021/04/30 04:51:26;;;;;;;1.95;1.30;;;5.90;70.90;;;;;;4947847;29;20019;-68
2021/04/30 04:53:52;;;;;;;2.88;1.58;;;5.90;70.80;;;;;;4945859;29;20067;-69
2021/04/30 04:56:18;;;;;;;2.40;1.30;;;6.00;70.30;;;;;;4961309;29;20015;-69
2021/04/30 04:58:44;;;;;;;2.17;1.30;;;6.00;70.00;;;;;;4964762;29;20359;-69
2021/04/30 05:01:10;;;;;;;2.58;1.20;;;6.00;70.10;;;;;;4960200;29;20034;-69
2021/04/30 05:03:35;;;;;;;2.75;1.50;;;6.10;70.00;;;;;;4964443;28;20270;-69
2021/04/30 05:06:01;;;;;;;2.33;1.50;;;6.10;69.70;;;;;;4964105;28;20024;-69
2021/04/30 05:08:26;;;;;;;1.55;1.10;;;6.10;69.30;;;;;;4963052;28;20091;-69
2021/04/30 05:10:52;;;;;;;2.22;1.20;;;6.20;69.20;;;;;;4950901;29;20337;-68
2021/04/30 05:13:18;;;;;;;2.50;1.20;;;6.20;69.20;;;;;;4948120;29;20017;-69
2021/04/30 05:15:43;;;;;;;3.97;1.38;;;6.20;69.00;;;;;;4945999;28;20209;-68
2021/04/30 05:18:09;;;;;;;2.58;1.27;;;6.30;68.30;;;;;;4944816;29;20328;-69
2021/04/30 05:20:34;;;;;;;3.88;1.50;;;6.40;67.30;;;;;;4945557;29;20325;-68
2021/04/30 05:23:00;;;;;;;2.13;1.30;;;6.30;67.50;;;;;;4946158;29;20051;-68
2021/04/30 05:25:26;;;;;;;2.80;1.42;;;6.30;67.40;;;;;;4946680;29;20011;-69
2021/04/30 05:27:51;;;;;;;2.30;1.15;;;6.40;67.00;;;;;;4945342;29;20042;-68
2021/04/30 05:30:17;;;;;;;2.15;1.10;;;6.30;67.10;;;;;;4930415;29;20038;-68
2021/04/30 05:32:43;;;;;;;2.15;1.17;;;6.40;66.70;;;;;;4949723;29;20027;-67
2021/04/30 05:35:10;;;;;;;1.85;1.15;;;6.50;66.50;;;;;;4968078;29;20019;-69
2021/04/30 05:37:35;;;;;;;1.65;1.27;;;6.50;66.50;;;;;;4924801;29;20094;-68
2021/04/30 05:40:01;;;;;;;5.55;1.30;;;6.50;66.20;;;;;;4960082;28;20340;-69
2021/04/30 05:42:27;;;;;;;1.90;1.10;;;6.50;66.40;;;;;;4956905;28;20206;-68
2021/04/30 05:44:53;;;;;;;3.42;1.30;;;6.60;66.30;;;;;;4946544;29;20046;-68
2021/04/30 05:47:22;;;;;;;2.53;1.20;;;6.60;65.80;;;;;;4963998;28;20011;-68
2021/04/30 05:49:48;;;;;;;3.35;1.13;;;6.60;65.90;;;;;;4963518;28;20182;-67
2021/04/30 05:52:13;;;;;;;2.55;1.00;;;6.70;66.00;;;;;;4975034;28;20015;-68
2021/04/30 05:54:39;;;;;;;2.15;1.17;;;6.90;65.80;;;;;;4986170;28;20043;-69
2021/04/30 05:57:05;;;;;;;2.35;0.90;;;7.00;65.00;;;;;;4949678;29;20320;-70
2021/04/30 05:59:30;;;;;;;2.08;1.30;;;7.10;64.90;;;;;;4962697;28;20388;-69
2021/04/30 06:01:56;;;;;;;3.03;1.25;;;7.20;64.10;;;;;;4959401;28;20242;-70
2021/04/30 06:04:24;;;;;;;2.08;1.02;;;7.10;63.10;;;;;;4961807;28;20054;-69
2021/04/30 06:06:50;;;;;;;2.92;1.17;;;7.10;63.70;;;;;;4963159;28;20097;-69
2021/04/30 06:09:16;;;;;;;1.98;0.90;;;7.30;63.20;;;;;;4947383;29;20011;-69
2021/04/30 06:11:42;;;;;;;2.25;1.13;;;7.50;62.40;;;;;;4957292;29;20340;-68
2021/04/30 06:14:09;;;;;;;5.13;1.20;;;7.50;61.70;;;;;;4951197;28;20035;-69
2021/04/30 06:16:34;;;;;;;1.67;0.90;;;7.40;62.00;;;;;;4942097;29;20026;-68
2021/04/30 06:19:01;;;;;;;1.55;0.90;;;7.50;61.80;;;;;;4957410;28;20031;-69
2021/04/30 06:21:27;;;;;;;2.47;1.02;;;7.70;61.80;;;;;;4951095;28;20051;-69
2021/04/30 06:23:52;;;;;;;4.00;1.30;;;8.40;60.70;;;;;;4956063;28;20086;-68
2021/04/30 06:26:18;;;;;;;3.13;1.05;;;8.90;58.60;;;;;;4947593;28;20015;-68
2021/04/30 06:28:43;;;;;;;2.38;1.00;;;8.90;57.90;;;;;;4939244;28;20767;-69
2021/04/30 06:31:09;;;;;;;2.67;1.27;;;8.80;58.00;;;;;;4940549;28;20023;-69
2021/04/30 06:33:34;;;;;;;3.13;1.00;;;8.80;57.90;;;;;;4944357;28;20054;-67
2021/04/30 06:36:00;;;;;;;2.35;0.70;;;9.30;58.10;;;;;;4942608;28;20149;-68
2021/04/30 06:38:26;;;;;;;2.45;0.80;;;9.70;57.30;;;;;;4931241;28;20026;-70
2021/04/30 06:40:51;;;;;;;1.77;0.77;;;9.90;55.50;;;;;;4899783;28;20032;-68
2021/04/30 06:43:17;;;;;;;3.30;1.00;;;10.20;55.20;;;;;;4920589;29;21070;-69
2021/04/30 06:45:43;;;;;;;1.85;0.80;;;10.20;54.90;;;;;;4925596;28;20332;-69
2021/04/30 06:48:08;;;;;;;2.90;1.30;;;10.00;54.60;;;;;;4908615;28;20019;-69
2021/04/30 06:50:34;;;;;;;2.42;1.00;;;9.90;54.00;;;;;;4928026;29;20023;-69
2021/04/30 06:53:00;;;;;;;1.55;0.80;;;9.90;54.90;;;;;;4904128;28;20417;-68
2021/04/30 06:55:25;;;;;;;2.17;0.93;;;9.80;55.30;;;;;;4917727;28;20027;-68
2021/04/30 06:57:51;;;;;;;2.90;1.10;;;10.60;54.20;;;;;;4883166;29;20050;-69
2021/04/30 07:00:17;;;;;;;3.00;0.90;;;10.30;52.50;;;;;;4906725;29;21683;-71
2021/04/30 07:02:44;;;;;;;2.08;1.10;;;10.10;53.30;;;;;;4910794;28;20831;-69
2021/04/30 07:05:10;;;;;;;2.28;1.20;;;10.60;53.20;;;;;;4879836;28;20138;-69
2021/04/30 07:07:36;;;;;;;1.98;1.08;;;10.70;51.70;;;;;;4889127;28;20015;-69
2021/04/30 07:10:02;;;;;;;1.65;0.80;;;10.40;52.80;;;;;;4912485;28;20026;-69
2021/04/30 07:12:28;;;;;;;1.42;1.00;;;10.90;52.50;;;;;;4910341;28;20095;-71
2021/04/30 07:14:54;;;;;;;2.08;0.77;;;11.10;51.60;;;;;;4918063;28;20134;-69
2021/04/30 07:17:19;;;;;;;2.95;0.90;;;11.00;51.40;;;;;;4911748;28;20053;-70
2021/04/30 07:19:45;;;;;;;1.17;0.65;;;11.20;51.00;;;;;;4887258;28;20019;-69
2021/04/30 07:22:11;;;;;;;1.70;1.20;;;11.10;50.80;;;;;;4887572;28;20437;-70
2021/04/30 07:24:37;;;;;;;1.40;0.93;;;11.00;50.70;;;;;;4885850;28;20147;-70
2021/04/30 07:27:04;;;;;;;1.75;0.93;;;10.90;51.00;;;;;;4888920;28;20460;-69
2021/04/30 07:29:29;;;;;;;1.73;0.90;;;11.00;51.30;;;;;;4903584;28;20490;-69
2021/04/30 07:31:56;;;;;;;3.13;1.10;;;11.60;50.30;;;;;;4889630;28;20027;-69
2021/04/30 07:34:23;;;;;;;1.80;0.90;;;11.30;50.10;;;;;;4898530;28;20011;-68
2021/04/30 07:36:48;;;;;;;1.38;0.88;;;11.40;50.90;;;;;;4883249;29;20015;-69
2021/04/30 07:39:14;;;;;;;1.85;0.93;;;12.20;49.50;;;;;;4909026;28;20112;-69
2021/04/30 07:41:39;;;;;;;1.38;0.60;;;12.60;48.00;;;;;;4877359;28;20188;-69
2021/04/30 07:44:05;;;;;;;1.70;1.05;;;13.10;46.90;;;;;;4861302;28;20282;-70
2021/04/30 07:46:31;;;;;;;1.20;0.80;;;12.30;47.60;;;;;;4891384;28;20015;-69
2021/04/30 07:48:56;;;;;;;1.45;0.70;;;12.50;48.70;;;;;;4903723;28;20321;-70
2021/04/30 07:51:22;;;;;;;2.15;1.02;;;12.40;47.40;;;;;;4848663;28;20383;-69
2021/04/30 07:53:48;;;;;;;1.17;0.57;;;12.10;48.00;;;;;;4870365;29;20187;-70
2021/04/30 07:56:13;;;;;;;1.92;1.00;;;12.60;48.40;;;;;;4895555;28;20374;-70
2021/04/30 07:58:39;;;;;;;1.45;0.63;;;13.00;46.20;;;;;;4868129;29;20105;-70
2021/04/30 08:01:05;;;;;;;1.80;0.90;;;13.00;46.30;;;;;;4896973;28;20037;-69
2021/04/30 08:03:30;;;;;;;1.42;0.80;;;12.50;46.30;;;;;;4890208;28;21019;-70
2021/04/30 08:05:56;;;;;;;0.85;0.63;;;12.50;46.80;;;;;;4849980;28;20895;-70
2021/04/30 08:08:21;;;;;;;1.95;0.80;;;13.20;45.60;;;;;;4853947;28;20071;-70
2021/04/30 08:10:47;;;;;;;2.78;0.90;;;13.00;44.50;;;;;;4881348;28;21714;-69
2021/04/30 08:13:13;;;;;;;1.52;0.80;;;13.30;44.00;;;;;;4892580;28;20015;-69
2021/04/30 08:15:39;;;;;;;3.03;1.05;;;13.70;43.60;;;;;;4879503;28;20027;-71
2021/04/30 08:18:04;;;;;;;2.42;1.00;;;13.60;43.40;;;;;;4899326;28;20027;-71
2021/04/30 08:20:30;;;;;;;1.80;0.88;;;13.80;43.20;;;;;;4882955;28;20768;-71
2021/04/30 08:22:56;;;;;;;1.52;0.80;;;13.50;42.90;;;;;;4884607;28;20055;-71
2021/04/30 08:25:22;;;;;;;2.03;0.88;;;13.80;43.00;;;;;;4879046;28;20019;-70
2021/04/30 08:27:47;;;;;;;2.05;0.98;;;13.70;42.60;;;;;;4888237;28;20126;-71
2021/04/30 08:30:14;;;;;;;1.83;0.85;;;13.40;42.30;;;;;;4878303;28;20019;-71
2021/04/30 08:32:39;;;;;;;1.92;0.98;;;13.70;42.30;;;;;;4877710;28;20250;-72
2021/04/30 08:35:05;;;;;;;1.75;0.93;;;14.10;41.40;;;;;;4896795;28;20415;-72
2021/04/30 08:37:31;;;;;;;1.30;0.70;;;14.30;41.10;;;;;;4886636;28;20027;-72
2021/04/30 08:39:57;;;;;;;3.15;0.70;;;14.70;40.70;;;;;;4858379;29;20781;-72
2021/04/30 08:42:23;;;;;;;1.35;0.88;;;14.80;40.10;;;;;;4865285;28;20349;-72
2021/04/30 08:44:48;;;;;;;3.22;0.80;;;15.10;39.90;;;;;;4861289;28;20273;-71
2021/04/30 08:47:17;;;;;;;3.92;0.90;;;15.70;39.00;;;;;;4862095;28;20019;-72
2021/04/30 08:49:44;;;;;;;1.77;0.88;;;15.50;38.30;;;;;;4872714;28;20019;-72
2021/04/30 08:52:11;;;;;;;2.65;0.73;;;16.00;37.80;;;;;;4874075;28;20884;-71
2021/04/30 08:54:37;;;;;;;5.68;2.97;;;16.10;37.60;;;;;;4861484;28;20367;-72
2021/04/30 08:57:05;;;;;;;1.92;1.38;;;16.60;36.20;;;;;;4846857;28;20419;-71
2021/04/30 08:59:31;;;;;;;1.50;1.08;;;16.70;35.60;;;;;;4868780;28;20640;-71
2021/04/30 09:01:56;;;;;;;0.73;0.65;;;16.30;36.30;;;;;;4862876;28;20563;-72
2021/04/30 09:04:23;;;;;;;2.10;1.17;;;16.70;36.00;;;;;;4887169;28;20043;-71
2021/04/30 09:06:48;;;;;;;1.10;0.80;;;16.70;35.40;;;;;;4894601;28;20264;-69
2021/04/30 09:09:16;;;;;;;0.68;0.60;;;16.50;35.60;;;;;;4900483;28;20089;-71
2021/04/30 09:11:45;;;;;;;1.40;0.70;;;17.10;36.40;;;;;;4877983;28;20087;-71
2021/04/30 09:14:20;;;;;;;0.85;0.70;;;17.30;41.00;;;;;;4907252;28;20230;-71
2021/04/30 09:17:05;;;;;;;1.55;0.50;;;17.00;41.20;;;;;;4873452;28;20613;-71
2021/04/30 09:19:46;;;;;;;2.05;0.65;;;17.10;41.80;;;;;;4888329;28;20190;-71
2021/04/30 09:22:12;;;;;;;0.73;0.70;;;17.20;42.70;;;;;;4904531;28;20322;-71
2021/04/30 09:24:38;;;;;;;1.27;0.80;;;17.00;42.80;;;;;;4884598;28;20035;-71
2021/04/30 09:27:04;;;;;;;1.58;0.65;;;17.10;42.70;;;;;;4916503;28;20019;-71
2021/04/30 09:29:32;;;;;;;1.48;0.82;;;17.00;42.00;;;;;;4918525;28;20019;-71
2021/04/30 09:32:01;;;;;;;1.58;0.98;;;17.00;41.60;;;;;;4920646;28;20107;-71
2021/04/30 09:34:29;;;;;;;2.05;0.77;;;16.40;42.60;;;;;;4928803;28;20716;-72
2021/04/30 09:37:12;;;;;;;0.88;0.73;;;16.40;40.80;;;;;;4921615;28;20061;-70
2021/04/30 09:39:47;;;;;;;1.27;0.70;;;16.10;42.60;;;;;;4929577;28;20106;-71
2021/04/30 09:42:16;;;;;;;1.40;0.90;;;16.40;44.40;;;;;;4916545;28;20107;-72
2021/04/30 09:44:46;;;;;;;1.73;0.80;;;16.30;44.60;;;;;;4884637;28;20252;-72
2021/04/30 09:47:12;;;;;;;1.38;0.60;;;15.80;46.70;;;;;;4887180;28;20963;-72
2021/04/30 09:49:38;;;;;;;0.68;0.50;;;16.00;47.40;;;;;;4901972;28;20340;-70
2021/04/30 09:52:04;;;;;;;1.02;0.70;;;16.10;46.30;;;;;;4914023;28;20031;-70
2021/04/30 09:54:30;;;;;;;1.33;0.73;;;16.50;45.50;;;;;;4914282;28;20033;-70
2021/04/30 09:57:11;;;;;;;0.85;0.73;;;16.50;44.40;;;;;;4901214;28;20173;-70
2021/04/30 09:59:38;;;;;;;1.98;0.77;;;16.50;45.70;;;;;;4908400;28;20035;-70
2021/04/30 10:02:30;;;;;;;0.90;0.80;;;16.40;45.00;;;;;;4914625;28;20034;-71
2021/04/30 10:04:57;;;;;;;3.17;1.10;;;15.70;47.30;;;;;;4895639;28;20031;-69
2021/04/30 10:07:36;;;;;;;2.03;0.80;;;15.20;49.00;;;;;;4868788;28;20031;-70
2021/04/30 10:10:12;;;;;;;1.30;0.70;;;14.90;51.40;;;;;;4879070;28;20028;-68
2021/04/30 10:12:42;;;;;;;1.02;0.70;;;14.90;50.30;;;;;;4887236;28;20300;-70
2021/04/30 10:15:09;;;;;;;2.95;1.20;;;14.60;51.10;;;;;;4882406;28;20118;-70
2021/04/30 10:17:36;;;;;;;2.50;1.00;;;14.30;52.20;;;;;;4835043;28;20026;-70
2021/04/30 10:20:02;;;;;;;2.03;0.90;;;14.30;52.80;;;;;;4892711;28;20647;-70
2021/04/30 10:22:28;;;;;;;1.25;0.82;;;14.30;52.30;;;;;;4882713;28;20059;-70
2021/04/30 10:25:00;;;;;;;1.80;0.90;;;13.90;53.40;;;;;;4886838;28;20081;-70
2021/04/30 10:27:27;;;;;;;3.80;0.98;;;13.80;53.00;;;;;;4862267;28;20176;-70
2021/04/30 10:30:18;;;;;;;1.48;0.73;;;13.90;52.70;;;;;;4842034;28;20369;-70
2021/04/30 10:33:02;;;;;;;2.63;0.80;;;14.20;52.50;;;;;;4833263;28;21126;-71
2021/04/30 10:35:59;;;;;;;1.95;1.05;;;14.40;51.10;;;;;;4875536;28;20038;-72
2021/04/30 10:38:27;;;;;;;2.63;1.15;;;14.80;50.10;;;;;;4878087;28;20122;-70
2021/04/30 10:40:59;;;;;;;3.15;1.20;;;14.20;51.70;;;;;;4876188;28;20790;-70
2021/04/30 10:43:25;;;;;;;1.33;0.80;;;13.80;52.00;;;;;;4862071;29;20911;-69
2021/04/30 10:46:26;;;;;;;3.22;0.80;;;13.90;50.60;;;;;;4886892;28;20026;-69
2021/04/30 10:49:04;;;;;;;0.90;0.70;;;14.40;51.90;;;;;;4827647;29;20139;-72
2021/04/30 10:51:31;;;;;;;2.35;0.70;;;14.40;51.70;;;;;;4814144;29;20449;-70
2021/04/30 10:54:22;;;;;;;1.13;0.77;;;14.20;51.60;;;;;;4815792;29;20029;-69
2021/04/30 10:57:06;;;;;;;1.73;0.55;;;14.70;52.30;;;;;;4825368;29;25024;-70
2021/04/30 10:59:40;;;;;;;1.15;0.60;;;15.30;51.40;;;;;;4793601;29;21025;-71
2021/04/30 11:02:09;;;;;;;3.13;0.85;;;15.20;50.10;;;;;;4805965;29;20238;-70
2021/04/30 11:04:34;;;;;;;4.22;1.10;;;14.30;49.60;;;;;;4782258;29;20784;-71
2021/04/30 11:07:00;;;;;;;5.25;1.13;;;13.60;50.60;;;;;;4797884;29;20769;-71
2021/04/30 11:09:34;;;;;;;2.15;0.88;;;13.40;52.50;;;;;;4810637;29;20242;-71
2021/04/30 11:12:19;;;;;;;2.13;0.90;;;13.20;52.80;;;;;;4812961;29;21193;-71
2021/04/30 11:15:05;;;;;;;1.52;0.90;;;12.90;54.80;;;;;;4818787;29;20855;-71
2021/04/30 11:17:46;;;;;;;3.85;1.10;;;12.80;55.10;;;;;;4823970;29;20346;-71
2021/04/30 11:20:12;;;;;;;2.03;0.70;;;12.60;55.50;;;;;;4822463;29;20960;-70
2021/04/30 11:22:38;;;;;;;1.80;0.90;;;12.70;56.50;;;;;;4844969;28;20325;-71
2021/04/30 11:25:04;;;;;;;1.45;0.82;;;12.80;56.80;;;;;;4893718;28;20405;-69
2021/04/30 11:27:31;;;;;;;4.07;1.00;;;12.70;56.60;;;;;;4893279;29;20046;-70
2021/04/30 11:30:19;;;;;;;2.97;1.13;;;12.90;55.70;;;;;;4893853;28;20109;-70
2021/04/30 11:32:55;;;;;;;4.57;0.95;;;12.40;57.50;;;;;;4891254;28;20118;-70
2021/04/30 11:35:20;;;;;;;3.17;1.05;;;12.40;58.40;;;;;;4903979;28;21269;-70
2021/04/30 11:37:48;;;;;;;2.38;1.00;;;12.50;56.80;;;;;;4917445;28;20019;-71
2021/04/30 11:40:13;;;;;;;2.92;1.02;;;12.50;57.60;;;;;;4907256;28;20027;-71
2021/04/30 11:42:39;;;;;;;3.13;1.20;;;12.50;58.60;;;;;;4896991;29;20030;-71
2021/04/30 11:45:06;;;;;;;4.65;1.00;;;12.30;57.30;;;;;;4922960;28;20684;-71
2021/04/30 11:47:33;;;;;;;3.03;1.23;;;12.20;58.40;;;;;;4909559;28;20027;-71
2021/04/30 11:49:59;;;;;;;2.10;1.10;;;12.20;59.00;;;;;;4922305;28;20023;-69
2021/04/30 11:52:29;;;;;;;2.78;1.00;;;12.40;58.40;;;;;;4893023;29;20499;-68
2021/04/30 11:55:22;;;;;;;2.78;1.10;;;12.50;57.80;;;;;;4898885;28;20023;-69
2021/04/30 11:57:56;;;;;;;1.75;0.82;;;12.80;57.70;;;;;;4918032;28;20340;-68
2021/04/30 12:00:23;;;;;;;3.47;1.10;;;13.00;57.40;;;;;;4929083;28;20019;-70
2021/04/30 12:03:03;;;;;;;3.83;1.40;;;12.90;57.40;;;;;;4912322;29;20218;-70
2021/04/30 12:05:29;;;;;;;3.63;1.60;;;12.40;59.80;;;;;;4925431;29;20082;-69
2021/04/30 12:07:56;;;;;;;5.68;1.85;;;12.10;59.30;;;;;;4939243;28;20055;-70
2021/04/30 12:10:24;;;;;;;4.03;1.30;;;12.00;60.00;;;;;;4929400;28;20043;-70
2021/04/30 12:12:50;;;;;;;1.98;1.08;;;11.90;60.70;;;;;;4928076;28;20299;-70
2021/04/30 12:15:45;;;;;;;3.17;1.17;;;12.20;61.20;;;;;;4906994;28;20023;-70
2021/04/30 12:18:11;;;;;;;4.38;1.30;;;12.50;59.80;;;;;;4923481;28;20027;-69
2021/04/30 12:20:41;;;;;;;3.28;1.60;;;12.40;59.10;;;;;;4940234;29;20023;-70
2021/04/30 12:23:08;;;;;;;3.03;1.50;;;12.30;58.10;;;;;;4891501;29;20058;-70
2021/04/30 12:25:37;;;;;;;3.55;1.40;;;12.00;59.30;;;;;;4911292;28;20154;-69
2021/04/30 12:28:20;;;;;;;3.35;1.40;;;11.80;59.20;;;;;;4927147;28;20027;-69
2021/04/30 12:30:50;;;;;;;2.85;1.10;;;11.80;60.00;;;;;;4923349;28;20015;-70
2021/04/30 12:33:46;;;;;;;1.83;1.30;;;12.00;60.70;;;;;;4924337;29;20019;-70
2021/04/30 12:36:19;;;;;;;1.90;1.17;;;12.10;59.30;;;;;;4926636;28;20027;-69
2021/04/30 12:38:46;;;;;;;1.98;1.33;;;12.10;57.20;;;;;;4948522;28;20024;-69
2021/04/30 12:41:23;;;;;;;3.40;1.42;;;12.00;56.80;;;;;;4931912;28;20124;-70
2021/04/30 12:43:50;;;;;;;3.20;1.45;;;11.90;56.70;;;;;;4946093;28;20066;-71
2021/04/30 12:46:20;;;;;;;2.42;1.15;;;12.00;57.60;;;;;;4938921;28;20106;-69
2021/04/30 12:48:47;;;;;;;2.72;1.13;;;12.20;57.40;;;;;;4930711;29;20417;-71
2021/04/30 12:51:15;;;;;;;2.35;1.02;;;12.30;56.60;;;;;;4914021;28;20202;-72
2021/04/30 12:53:42;;;;;;;2.65;1.20;;;12.50;56.90;;;;;;4914189;28;20210;-72
2021/04/30 12:56:09;;;;;;;2.65;1.40;;;12.60;56.50;;;;;;4941000;28;20243;-71